sensor_id;sensor_type;location;lat;lon;timestamp;temperature;humidity
48579;DHT22;34357;51.948;6.132;2023-02-15T00:00:20;1.60;91.60
48579;DHT22;34357;51.948;6.132;2023-02-15T00:02:46;1.60;91.60
48579;DHT22;34357;51.948;6.132;2023-02-15T00:05:12;1.50;91.50
48579;DHT22;34357;51.948;6.132;2023-02-15T00:07:37;1.50;91.60
48579;DHT22;34357;51.948;6.132;2023-02-15T00:10:04;1.40;91.70
48579;DHT22;34357;51.948;6.132;2023-02-15T00:12:30;1.40;91.70
48579;DHT22;34357;51.948;6.132;2023-02-15T00:14:56;1.40;91.80
48579;DHT22;34357;51.948;6.132;2023-02-15T00:17:21;1.40;91.80
48579;DHT22;34357;51.948;6.132;2023-02-15T00:19:47;1.50;91.90
48579;DHT22;34357;51.948;6.132;2023-02-15T00:22:13;1.40;91.80
48579;DHT22;34357;51.948;6.132;2023-02-15T00:24:39;1.40;91.70
48579;DHT22;34357;51.948;6.132;2023-02-15T00:27:04;1.30;91.70
48579;DHT22;34357;51.948;6.132;2023-02-15T00:29:30;1.30;91.70
48579;DHT22;34357;51.948;6.132;2023-02-15T00:31:57;1.20;91.80
48579;DHT22;34357;51.948;6.132;2023-02-15T00:34:26;1.20;91.80
48579;DHT22;34357;51.948;6.132;2023-02-15T00:36:52;1.10;91.80
48579;DHT22;34357;51.948;6.132;2023-02-15T00:39:18;1.10;91.70
48579;DHT22;34357;51.948;6.132;2023-02-15T00:41:45;1.10;91.90
48579;DHT22;34357;51.948;6.132;2023-02-15T00:44:12;1.10;91.90
48579;DHT22;34357;51.948;6.132;2023-02-15T00:46:38;1.10;91.90
48579;DHT22;34357;51.948;6.132;2023-02-15T00:49:04;1.10;91.80
48579;DHT22;34357;51.948;6.132;2023-02-15T00:51:31;1.10;91.90
48579;DHT22;34357;51.948;6.132;2023-02-15T00:53:57;1.10;91.90
48579;DHT22;34357;51.948;6.132;2023-02-15T00:56:23;1.10;91.90
48579;DHT22;34357;51.948;6.132;2023-02-15T00:58:49;1.10;91.90
48579;DHT22;34357;51.948;6.132;2023-02-15T01:01:19;1.00;91.90
48579;DHT22;34357;51.948;6.132;2023-02-15T01:03:45;1.00;91.90
48579;DHT22;34357;51.948;6.132;2023-02-15T01:06:13;0.90;92.00
48579;DHT22;34357;51.948;6.132;2023-02-15T01:08:39;0.90;91.90
48579;DHT22;34357;51.948;6.132;2023-02-15T01:11:07;0.90;91.90
48579;DHT22;34357;51.948;6.132;2023-02-15T01:13:34;0.90;91.90
48579;DHT22;34357;51.948;6.132;2023-02-15T01:16:01;0.80;91.90
48579;DHT22;34357;51.948;6.132;2023-02-15T01:18:27;0.80;91.90
48579;DHT22;34357;51.948;6.132;2023-02-15T01:20:53;0.80;91.90
48579;DHT22;34357;51.948;6.132;2023-02-15T01:23:19;0.80;91.70
48579;DHT22;34357;51.948;6.132;2023-02-15T01:25:45;0.80;92.00
48579;DHT22;34357;51.948;6.132;2023-02-15T01:28:12;0.70;91.90
48579;DHT22;34357;51.948;6.132;2023-02-15T01:30:38;0.70;91.90
48579;DHT22;34357;51.948;6.132;2023-02-15T01:33:04;0.70;91.90
48579;DHT22;34357;51.948;6.132;2023-02-15T01:35:31;0.70;92.00
48579;DHT22;34357;51.948;6.132;2023-02-15T01:37:57;0.60;92.00
48579;DHT22;34357;51.948;6.132;2023-02-15T01:40:23;0.60;91.90
48579;DHT22;34357;51.948;6.132;2023-02-15T01:42:54;0.60;91.90
48579;DHT22;34357;51.948;6.132;2023-02-15T01:45:30;0.60;91.90
48579;DHT22;34357;51.948;6.132;2023-02-15T01:48:28;0.60;91.90
48579;DHT22;34357;51.948;6.132;2023-02-15T01:50:57;0.50;91.90
48579;DHT22;34357;51.948;6.132;2023-02-15T01:54:11;0.60;91.90
48579;DHT22;34357;51.948;6.132;2023-02-15T01:56:32;0.50;91.90
48579;DHT22;34357;51.948;6.132;2023-02-15T01:59:02;0.50;92.00
48579;DHT22;34357;51.948;6.132;2023-02-15T02:01:31;0.50;92.00
48579;DHT22;34357;51.948;6.132;2023-02-15T02:06:24;0.50;92.10
48579;DHT22;34357;51.948;6.132;2023-02-15T02:08:52;0.40;92.00
48579;DHT22;34357;51.948;6.132;2023-02-15T02:11:18;0.40;92.00
48579;DHT22;34357;51.948;6.132;2023-02-15T02:13:46;0.40;92.00
48579;DHT22;34357;51.948;6.132;2023-02-15T02:25:31;0.30;92.00
48579;DHT22;34357;51.948;6.132;2023-02-15T02:27:50;0.30;91.90
48579;DHT22;34357;51.948;6.132;2023-02-15T02:33:30;0.30;92.00
48579;DHT22;34357;51.948;6.132;2023-02-15T02:44:34;0.20;92.00
48579;DHT22;34357;51.948;6.132;2023-02-15T02:47:19;0.10;91.90
48579;DHT22;34357;51.948;6.132;2023-02-15T02:49:48;0.10;91.90
48579;DHT22;34357;51.948;6.132;2023-02-15T02:55:05;0.10;92.00
48579;DHT22;34357;51.948;6.132;2023-02-15T02:57:32;0.10;92.00
48579;DHT22;34357;51.948;6.132;2023-02-15T03:00:01;0.00;92.00
48579;DHT22;34357;51.948;6.132;2023-02-15T03:02:32;0.00;92.00
48579;DHT22;34357;51.948;6.132;2023-02-15T03:05:03;0.00;92.00
48579;DHT22;34357;51.948;6.132;2023-02-15T03:07:31;0.00;92.00
48579;DHT22;34357;51.948;6.132;2023-02-15T03:10:02;0.00;92.10
48579;DHT22;34357;51.948;6.132;2023-02-15T03:12:32;0.00;92.10
48579;DHT22;34357;51.948;6.132;2023-02-15T03:15:10;0.00;92.10
48579;DHT22;34357;51.948;6.132;2023-02-15T03:17:42;0.00;92.20
48579;DHT22;34357;51.948;6.132;2023-02-15T03:20:14;0.00;92.10
48579;DHT22;34357;51.948;6.132;2023-02-15T03:29:12;0.00;92.10
48579;DHT22;34357;51.948;6.132;2023-02-15T03:31:41;0.00;92.10
48579;DHT22;34357;51.948;6.132;2023-02-15T03:34:10;0.00;92.10
48579;DHT22;34357;51.948;6.132;2023-02-15T03:37:00;0.00;92.10
48579;DHT22;34357;51.948;6.132;2023-02-15T03:43:00;0.00;92.10
48579;DHT22;34357;51.948;6.132;2023-02-15T03:45:31;0.00;92.20
48579;DHT22;34357;51.948;6.132;2023-02-15T03:48:00;0.00;92.30
48579;DHT22;34357;51.948;6.132;2023-02-15T03:50:30;-0.10;92.20
48579;DHT22;34357;51.948;6.132;2023-02-15T03:53:18;-0.10;92.20
48579;DHT22;34357;51.948;6.132;2023-02-15T03:55:52;-0.10;92.30
48579;DHT22;34357;51.948;6.132;2023-02-15T03:58:18;-0.10;92.30
48579;DHT22;34357;51.948;6.132;2023-02-15T04:01:50;-0.10;92.30
48579;DHT22;34357;51.948;6.132;2023-02-15T04:06:54;-0.10;92.20
48579;DHT22;34357;51.948;6.132;2023-02-15T04:09:19;-0.20;92.30
48579;DHT22;34357;51.948;6.132;2023-02-15T04:12:04;-0.10;92.40
48579;DHT22;34357;51.948;6.132;2023-02-15T04:14:29;-0.10;92.40
48579;DHT22;34357;51.948;6.132;2023-02-15T04:17:13;-0.10;92.40
48579;DHT22;34357;51.948;6.132;2023-02-15T04:19:39;-0.10;92.40
48579;DHT22;34357;51.948;6.132;2023-02-15T04:22:23;-0.10;92.30
48579;DHT22;34357;51.948;6.132;2023-02-15T04:25:08;-0.20;92.30
48579;DHT22;34357;51.948;6.132;2023-02-15T04:27:44;-0.30;92.30
48579;DHT22;34357;51.948;6.132;2023-02-15T04:30:13;-0.30;92.30
48579;DHT22;34357;51.948;6.132;2023-02-15T04:32:39;-0.30;92.30
48579;DHT22;34357;51.948;6.132;2023-02-15T04:35:06;-0.30;92.20
48579;DHT22;34357;51.948;6.132;2023-02-15T04:37:32;-0.30;92.30
48579;DHT22;34357;51.948;6.132;2023-02-15T04:39:58;-0.40;92.30
48579;DHT22;34357;51.948;6.132;2023-02-15T04:42:27;-0.30;92.40
48579;DHT22;34357;51.948;6.132;2023-02-15T04:44:53;-0.30;92.40
48579;DHT22;34357;51.948;6.132;2023-02-15T04:47:19;-0.40;92.40
48579;DHT22;34357;51.948;6.132;2023-02-15T04:49:45;-0.40;92.40
48579;DHT22;34357;51.948;6.132;2023-02-15T04:52:11;-0.40;92.40
48579;DHT22;34357;51.948;6.132;2023-02-15T04:54:36;-0.40;92.40
48579;DHT22;34357;51.948;6.132;2023-02-15T04:57:03;-0.40;92.40
48579;DHT22;34357;51.948;6.132;2023-02-15T04:59:30;-0.40;92.40
48579;DHT22;34357;51.948;6.132;2023-02-15T05:01:55;-0.40;92.50
48579;DHT22;34357;51.948;6.132;2023-02-15T05:04:21;-0.40;92.50
48579;DHT22;34357;51.948;6.132;2023-02-15T05:06:47;-0.40;92.50
48579;DHT22;34357;51.948;6.132;2023-02-15T05:09:13;-0.40;92.50
48579;DHT22;34357;51.948;6.132;2023-02-15T05:11:39;-0.40;92.50
48579;DHT22;34357;51.948;6.132;2023-02-15T05:14:04;-0.50;92.50
48579;DHT22;34357;51.948;6.132;2023-02-15T05:16:30;-0.50;92.60
48579;DHT22;34357;51.948;6.132;2023-02-15T05:18:56;-0.50;92.70
48579;DHT22;34357;51.948;6.132;2023-02-15T05:21:22;-0.50;92.60
48579;DHT22;34357;51.948;6.132;2023-02-15T05:23:48;-0.40;92.60
48579;DHT22;34357;51.948;6.132;2023-02-15T05:26:18;-0.40;92.60
48579;DHT22;34357;51.948;6.132;2023-02-15T05:29:03;-0.50;92.70
48579;DHT22;34357;51.948;6.132;2023-02-15T05:31:30;-0.50;92.60
48579;DHT22;34357;51.948;6.132;2023-02-15T05:33:56;-0.50;92.70
48579;DHT22;34357;51.948;6.132;2023-02-15T05:36:21;-0.30;92.70
48579;DHT22;34357;51.948;6.132;2023-02-15T05:38:47;-0.30;92.70
48579;DHT22;34357;51.948;6.132;2023-02-15T05:41:13;-0.40;92.80
48579;DHT22;34357;51.948;6.132;2023-02-15T05:43:39;-0.40;92.70
48579;DHT22;34357;51.948;6.132;2023-02-15T05:46:05;-0.50;92.70
48579;DHT22;34357;51.948;6.132;2023-02-15T05:48:31;-0.50;92.70
48579;DHT22;34357;51.948;6.132;2023-02-15T05:53:25;-0.60;92.80
48579;DHT22;34357;51.948;6.132;2023-02-15T05:55:51;-0.60;92.70
48579;DHT22;34357;51.948;6.132;2023-02-15T05:58:17;-0.50;92.70
48579;DHT22;34357;51.948;6.132;2023-02-15T06:00:43;-0.50;92.80
48579;DHT22;34357;51.948;6.132;2023-02-15T06:03:09;-0.50;92.80
48579;DHT22;34357;51.948;6.132;2023-02-15T06:05:34;-0.50;92.90
48579;DHT22;34357;51.948;6.132;2023-02-15T06:08:00;-0.60;92.80
48579;DHT22;34357;51.948;6.132;2023-02-15T06:10:26;-0.50;92.80
48579;DHT22;34357;51.948;6.132;2023-02-15T06:12:51;-0.60;92.80
48579;DHT22;34357;51.948;6.132;2023-02-15T06:15:17;-0.60;92.80
48579;DHT22;34357;51.948;6.132;2023-02-15T06:17:43;-0.60;92.80
48579;DHT22;34357;51.948;6.132;2023-02-15T06:20:09;-0.60;92.80
48579;DHT22;34357;51.948;6.132;2023-02-15T06:22:35;-0.70;92.80
48579;DHT22;34357;51.948;6.132;2023-02-15T06:25:01;-0.70;92.80
48579;DHT22;34357;51.948;6.132;2023-02-15T06:27:27;-0.70;92.80
48579;DHT22;34357;51.948;6.132;2023-02-15T06:29:52;-0.80;92.90
48579;DHT22;34357;51.948;6.132;2023-02-15T06:32:18;-0.80;92.90
48579;DHT22;34357;51.948;6.132;2023-02-15T06:34:44;-0.70;92.90
48579;DHT22;34357;51.948;6.132;2023-02-15T06:37:10;-0.80;92.90
48579;DHT22;34357;51.948;6.132;2023-02-15T06:39:35;-0.80;92.80
48579;DHT22;34357;51.948;6.132;2023-02-15T06:42:01;-0.80;92.90
48579;DHT22;34357;51.948;6.132;2023-02-15T06:44:27;-0.80;92.90
48579;DHT22;34357;51.948;6.132;2023-02-15T06:46:53;-0.80;92.90
48579;DHT22;34357;51.948;6.132;2023-02-15T06:49:18;-0.80;93.00
48579;DHT22;34357;51.948;6.132;2023-02-15T06:51:44;-0.80;92.90
48579;DHT22;34357;51.948;6.132;2023-02-15T06:54:10;-0.70;93.00
48579;DHT22;34357;51.948;6.132;2023-02-15T06:56:36;-0.60;93.00
48579;DHT22;34357;51.948;6.132;2023-02-15T06:59:01;-0.60;93.00
48579;DHT22;34357;51.948;6.132;2023-02-15T07:01:27;-0.60;93.10
48579;DHT22;34357;51.948;6.132;2023-02-15T07:03:53;-0.50;93.20
48579;DHT22;34357;51.948;6.132;2023-02-15T07:06:19;-0.50;93.10
48579;DHT22;34357;51.948;6.132;2023-02-15T07:08:45;-0.50;93.20
48579;DHT22;34357;51.948;6.132;2023-02-15T07:11:10;-0.30;93.30
48579;DHT22;34357;51.948;6.132;2023-02-15T07:13:55;-0.20;93.30
48579;DHT22;34357;51.948;6.132;2023-02-15T07:16:21;-0.30;93.30
48579;DHT22;34357;51.948;6.132;2023-02-15T07:18:46;-0.20;93.40
48579;DHT22;34357;51.948;6.132;2023-02-15T07:21:12;-0.10;93.40
48579;DHT22;34357;51.948;6.132;2023-02-15T07:23:38;0.00;93.50
48579;DHT22;34357;51.948;6.132;2023-02-15T07:26:05;0.00;93.50
48579;DHT22;34357;51.948;6.132;2023-02-15T07:28:32;0.40;93.60
48579;DHT22;34357;51.948;6.132;2023-02-15T07:31:02;0.70;93.60
48579;DHT22;34357;51.948;6.132;2023-02-15T07:33:29;1.00;93.60
48579;DHT22;34357;51.948;6.132;2023-02-15T07:36:00;1.20;93.50
48579;DHT22;34357;51.948;6.132;2023-02-15T07:38:31;1.30;93.40
48579;DHT22;34357;51.948;6.132;2023-02-15T07:41:01;1.40;93.30
48579;DHT22;34357;51.948;6.132;2023-02-15T07:43:28;1.60;93.10
48579;DHT22;34357;51.948;6.132;2023-02-15T07:46:02;1.60;92.70
48579;DHT22;34357;51.948;6.132;2023-02-15T07:48:28;1.70;92.40
48579;DHT22;34357;51.948;6.132;2023-02-15T07:50:56;1.90;92.30
48579;DHT22;34357;51.948;6.132;2023-02-15T07:53:23;1.90;92.10
48579;DHT22;34357;51.948;6.132;2023-02-15T07:55:49;2.00;91.70
48579;DHT22;34357;51.948;6.132;2023-02-15T07:58:15;2.20;91.40
48579;DHT22;34357;51.948;6.132;2023-02-15T08:00:40;2.20;91.10
48579;DHT22;34357;51.948;6.132;2023-02-15T08:03:27;2.30;90.90
48579;DHT22;34357;51.948;6.132;2023-02-15T08:05:58;2.30;90.60
48579;DHT22;34357;51.948;6.132;2023-02-15T08:08:25;2.40;90.40
48579;DHT22;34357;51.948;6.132;2023-02-15T08:11:16;2.40;90.10
48579;DHT22;34357;51.948;6.132;2023-02-15T08:13:56;2.60;89.90
48579;DHT22;34357;51.948;6.132;2023-02-15T08:18:58;3.00;89.40
48579;DHT22;34357;51.948;6.132;2023-02-15T08:21:26;3.10;89.40
48579;DHT22;34357;51.948;6.132;2023-02-15T08:23:52;3.20;88.90
48579;DHT22;34357;51.948;6.132;2023-02-15T08:26:18;3.20;88.40
48579;DHT22;34357;51.948;6.132;2023-02-15T08:28:44;3.40;88.30
48579;DHT22;34357;51.948;6.132;2023-02-15T08:31:13;3.50;88.10
48579;DHT22;34357;51.948;6.132;2023-02-15T08:33:40;3.60;88.00
48579;DHT22;34357;51.948;6.132;2023-02-15T08:36:14;3.90;87.70
48579;DHT22;34357;51.948;6.132;2023-02-15T08:38:41;4.10;87.50
48579;DHT22;34357;51.948;6.132;2023-02-15T08:41:26;4.10;86.50
48579;DHT22;34357;51.948;6.132;2023-02-15T08:43:54;4.10;86.00
48579;DHT22;34357;51.948;6.132;2023-02-15T08:46:22;4.30;85.80
48579;DHT22;34357;51.948;6.132;2023-02-15T08:48:48;4.40;85.70
48579;DHT22;34357;51.948;6.132;2023-02-15T08:51:22;4.50;85.20
48579;DHT22;34357;51.948;6.132;2023-02-15T08:53:50;4.40;84.70
48579;DHT22;34357;51.948;6.132;2023-02-15T08:56:18;4.60;85.30
48579;DHT22;34357;51.948;6.132;2023-02-15T08:58:44;4.90;85.10
48579;DHT22;34357;51.948;6.132;2023-02-15T09:01:16;4.80;84.00
48579;DHT22;34357;51.948;6.132;2023-02-15T09:03:50;4.90;84.00
48579;DHT22;34357;51.948;6.132;2023-02-15T09:06:18;4.90;83.50
48579;DHT22;34357;51.948;6.132;2023-02-15T09:08:44;4.90;83.50
48579;DHT22;34357;51.948;6.132;2023-02-15T09:11:13;5.10;84.30
48579;DHT22;34357;51.948;6.132;2023-02-15T09:13:42;5.30;83.30
48579;DHT22;34357;51.948;6.132;2023-02-15T09:16:08;5.50;83.20
48579;DHT22;34357;51.948;6.132;2023-02-15T09:18:37;5.70;82.80
48579;DHT22;34357;51.948;6.132;2023-02-15T09:21:12;5.60;82.40
48579;DHT22;34357;51.948;6.132;2023-02-15T09:23:42;5.80;82.00
48579;DHT22;34357;51.948;6.132;2023-02-15T09:26:27;5.80;81.40
48579;DHT22;34357;51.948;6.132;2023-02-15T09:28:56;5.90;80.60
48579;DHT22;34357;51.948;6.132;2023-02-15T09:31:25;6.00;80.60
48579;DHT22;34357;51.948;6.132;2023-02-15T09:33:51;6.00;79.80
48579;DHT22;34357;51.948;6.132;2023-02-15T09:36:31;5.90;80.00
48579;DHT22;34357;51.948;6.132;2023-02-15T09:39:09;5.90;80.00
48579;DHT22;34357;51.948;6.132;2023-02-15T10:14:13;6.10;80.40
48579;DHT22;34357;51.948;6.132;2023-02-15T10:19:59;6.20;80.80
48579;DHT22;34357;51.948;6.132;2023-02-15T10:31:27;6.40;79.70
48579;DHT22;34357;51.948;6.132;2023-02-15T10:34:16;6.60;80.70
48579;DHT22;34357;51.948;6.132;2023-02-15T10:45:17;7.10;78.20
48579;DHT22;34357;51.948;6.132;2023-02-15T10:50:48;7.30;77.80
48579;DHT22;34357;51.948;6.132;2023-02-15T10:55:58;7.40;77.40
48579;DHT22;34357;51.948;6.132;2023-02-15T11:01:13;7.60;76.70
48579;DHT22;34357;51.948;6.132;2023-02-15T11:06:32;7.60;77.30
48579;DHT22;34357;51.948;6.132;2023-02-15T11:09:03;7.70;77.40
48579;DHT22;34357;51.948;6.132;2023-02-15T11:11:37;7.80;77.70
48579;DHT22;34357;51.948;6.132;2023-02-15T11:14:17;7.90;76.50
48579;DHT22;34357;51.948;6.132;2023-02-15T11:16:50;8.00;76.40
48579;DHT22;34357;51.948;6.132;2023-02-15T11:19:19;8.00;76.30
48579;DHT22;34357;51.948;6.132;2023-02-15T11:21:50;8.10;77.00
48579;DHT22;34357;51.948;6.132;2023-02-15T11:24:19;8.30;76.30
48579;DHT22;34357;51.948;6.132;2023-02-15T11:27:04;8.30;75.80
48579;DHT22;34357;51.948;6.132;2023-02-15T11:30:04;8.50;75.40
48579;DHT22;34357;51.948;6.132;2023-02-15T11:32:35;8.40;75.40
48579;DHT22;34357;51.948;6.132;2023-02-15T11:43:39;8.70;75.00
48579;DHT22;34357;51.948;6.132;2023-02-15T11:46:07;8.70;74.90
48579;DHT22;34357;51.948;6.132;2023-02-15T11:48:35;8.70;76.20
48579;DHT22;34357;51.948;6.132;2023-02-15T11:51:02;8.90;74.80
48579;DHT22;34357;51.948;6.132;2023-02-15T11:53:32;8.90;75.00
48579;DHT22;34357;51.948;6.132;2023-02-15T11:55:58;8.90;74.50
48579;DHT22;34357;51.948;6.132;2023-02-15T12:01:00;9.00;74.30
48579;DHT22;34357;51.948;6.132;2023-02-15T12:08:52;9.10;73.50
48579;DHT22;34357;51.948;6.132;2023-02-15T12:11:30;9.20;73.60
48579;DHT22;34357;51.948;6.132;2023-02-15T12:13:58;9.30;73.30
48579;DHT22;34357;51.948;6.132;2023-02-15T12:16:25;9.40;73.60
48579;DHT22;34357;51.948;6.132;2023-02-15T12:18:58;9.40;73.00
48579;DHT22;34357;51.948;6.132;2023-02-15T12:21:30;9.40;73.50
48579;DHT22;34357;51.948;6.132;2023-02-15T12:24:28;9.40;74.40
48579;DHT22;34357;51.948;6.132;2023-02-15T12:26:59;9.50;73.40
48579;DHT22;34357;51.948;6.132;2023-02-15T12:29:33;9.60;72.90
48579;DHT22;34357;51.948;6.132;2023-02-15T12:32:01;9.70;72.70
48579;DHT22;34357;51.948;6.132;2023-02-15T12:34:31;9.90;72.70
48579;DHT22;34357;51.948;6.132;2023-02-15T12:37:01;10.00;72.00
48579;DHT22;34357;51.948;6.132;2023-02-15T12:39:32;10.00;71.10
48579;DHT22;34357;51.948;6.132;2023-02-15T12:42:16;10.10;71.30
48579;DHT22;34357;51.948;6.132;2023-02-15T12:47:20;10.30;70.30
48579;DHT22;34357;51.948;6.132;2023-02-15T12:50:13;10.40;70.80
48579;DHT22;34357;51.948;6.132;2023-02-15T12:53:21;10.40;70.00
48579;DHT22;34357;51.948;6.132;2023-02-15T12:55:55;10.50;69.30
48579;DHT22;34357;51.948;6.132;2023-02-15T13:01:15;10.90;68.00
48579;DHT22;34357;51.948;6.132;2023-02-15T13:04:15;10.90;67.80
48579;DHT22;34357;51.948;6.132;2023-02-15T13:06:50;11.00;68.00
48579;DHT22;34357;51.948;6.132;2023-02-15T13:09:36;11.10;67.30
48579;DHT22;34357;51.948;6.132;2023-02-15T13:12:30;11.10;65.80
48579;DHT22;34357;51.948;6.132;2023-02-15T13:14:57;11.20;67.00
48579;DHT22;34357;51.948;6.132;2023-02-15T13:17:27;11.10;66.20
48579;DHT22;34357;51.948;6.132;2023-02-15T13:20:04;11.20;65.40
48579;DHT22;34357;51.948;6.132;2023-02-15T13:22:44;11.20;65.90
48579;DHT22;34357;51.948;6.132;2023-02-15T13:25:43;11.20;64.90
48579;DHT22;34357;51.948;6.132;2023-02-15T13:28:13;11.10;65.20
48579;DHT22;34357;51.948;6.132;2023-02-15T13:30:44;11.10;65.90
48579;DHT22;34357;51.948;6.132;2023-02-15T13:33:19;11.00;65.80
48579;DHT22;34357;51.948;6.132;2023-02-15T13:35:54;11.10;66.10
48579;DHT22;34357;51.948;6.132;2023-02-15T13:40:53;11.00;67.20
48579;DHT22;34357;51.948;6.132;2023-02-15T13:47:15;11.00;66.70
48579;DHT22;34357;51.948;6.132;2023-02-15T13:49:39;11.30;67.00
48579;DHT22;34357;51.948;6.132;2023-02-15T13:57:41;11.40;65.60
48579;DHT22;34357;51.948;6.132;2023-02-15T14:00:22;11.40;65.10
48579;DHT22;34357;51.948;6.132;2023-02-15T14:11:20;11.50;65.60
48579;DHT22;34357;51.948;6.132;2023-02-15T14:16:20;11.60;64.90
48579;DHT22;34357;51.948;6.132;2023-02-15T14:21:36;11.70;64.20
48579;DHT22;34357;51.948;6.132;2023-02-15T14:26:56;11.60;65.20
48579;DHT22;34357;51.948;6.132;2023-02-15T14:32:57;11.50;65.00
48579;DHT22;34357;51.948;6.132;2023-02-15T14:35:06;11.50;65.90
48579;DHT22;34357;51.948;6.132;2023-02-15T14:49:25;11.20;67.30
48579;DHT22;34357;51.948;6.132;2023-02-15T14:51:57;11.20;67.90
48579;DHT22;34357;51.948;6.132;2023-02-15T14:59:55;11.40;67.10
48579;DHT22;34357;51.948;6.132;2023-02-15T15:02:43;11.30;67.30
48579;DHT22;34357;51.948;6.132;2023-02-15T15:05:17;11.40;67.00
48579;DHT22;34357;51.948;6.132;2023-02-15T15:07:58;11.30;67.20
48579;DHT22;34357;51.948;6.132;2023-02-15T15:10:40;11.30;67.40
48579;DHT22;34357;51.948;6.132;2023-02-15T15:16:31;11.20;68.50
48579;DHT22;34357;51.948;6.132;2023-02-15T15:19:11;11.10;68.80
48579;DHT22;34357;51.948;6.132;2023-02-15T15:27:45;10.90;69.40
48579;DHT22;34357;51.948;6.132;2023-02-15T15:32:46;11.00;69.30
48579;DHT22;34357;51.948;6.132;2023-02-15T15:49:15;10.70;69.90
48579;DHT22;34357;51.948;6.132;2023-02-15T15:51:44;10.60;70.10
48579;DHT22;34357;51.948;6.132;2023-02-15T15:54:19;10.50;70.40
48579;DHT22;34357;51.948;6.132;2023-02-15T15:56:58;10.40;71.00
48579;DHT22;34357;51.948;6.132;2023-02-15T15:59:30;10.30;71.40
48579;DHT22;34357;51.948;6.132;2023-02-15T16:01:56;10.40;70.90
48579;DHT22;34357;51.948;6.132;2023-02-15T16:04:34;10.30;71.30
48579;DHT22;34357;51.948;6.132;2023-02-15T16:09:59;10.30;70.90
48579;DHT22;34357;51.948;6.132;2023-02-15T16:12:27;10.30;71.00
48579;DHT22;34357;51.948;6.132;2023-02-15T16:14:54;10.30;70.70
48579;DHT22;34357;51.948;6.132;2023-02-15T16:17:28;10.20;71.10
48579;DHT22;34357;51.948;6.132;2023-02-15T16:20:17;10.10;71.40
48579;DHT22;34357;51.948;6.132;2023-02-15T16:22:46;10.00;71.60
48579;DHT22;34357;51.948;6.132;2023-02-15T16:25:30;9.90;71.60
48579;DHT22;34357;51.948;6.132;2023-02-15T16:27:57;9.90;71.70
48579;DHT22;34357;51.948;6.132;2023-02-15T16:30:33;9.90;71.80
48579;DHT22;34357;51.948;6.132;2023-02-15T16:33:16;9.70;72.20
48579;DHT22;34357;51.948;6.132;2023-02-15T16:35:57;9.60;72.60
48579;DHT22;34357;51.948;6.132;2023-02-15T16:41:11;9.40;73.60
48579;DHT22;34357;51.948;6.132;2023-02-15T16:43:38;9.30;74.20
48579;DHT22;34357;51.948;6.132;2023-02-15T16:46:09;9.20;74.30
48579;DHT22;34357;51.948;6.132;2023-02-15T16:48:40;9.20;74.70
48579;DHT22;34357;51.948;6.132;2023-02-15T16:51:07;9.10;74.70
48579;DHT22;34357;51.948;6.132;2023-02-15T16:53:34;9.00;74.80
48579;DHT22;34357;51.948;6.132;2023-02-15T16:56:03;8.90;75.40
48579;DHT22;34357;51.948;6.132;2023-02-15T16:58:43;8.80;75.70
48579;DHT22;34357;51.948;6.132;2023-02-15T17:01:12;8.70;76.30
48579;DHT22;34357;51.948;6.132;2023-02-15T17:03:40;8.50;76.90
48579;DHT22;34357;51.948;6.132;2023-02-15T17:08:45;8.50;77.30
48579;DHT22;34357;51.948;6.132;2023-02-15T17:11:22;8.40;78.00
48579;DHT22;34357;51.948;6.132;2023-02-15T17:16:35;8.60;77.60
48579;DHT22;34357;51.948;6.132;2023-02-15T17:19:03;8.60;77.70
48579;DHT22;34357;51.948;6.132;2023-02-15T17:21:40;8.60;77.90
48579;DHT22;34357;51.948;6.132;2023-02-15T17:24:19;8.50;77.70
48579;DHT22;34357;51.948;6.132;2023-02-15T17:26:50;8.50;78.20
48579;DHT22;34357;51.948;6.132;2023-02-15T17:29:44;8.40;78.30
48579;DHT22;34357;51.948;6.132;2023-02-15T17:32:25;8.30;78.80
48579;DHT22;34357;51.948;6.132;2023-02-15T17:35:18;8.40;79.00
48579;DHT22;34357;51.948;6.132;2023-02-15T17:37:47;8.30;79.00
48579;DHT22;34357;51.948;6.132;2023-02-15T17:40:29;8.20;79.30
48579;DHT22;34357;51.948;6.132;2023-02-15T17:42:55;8.20;79.80
48579;DHT22;34357;51.948;6.132;2023-02-15T17:45:22;8.20;79.80
48579;DHT22;34357;51.948;6.132;2023-02-15T17:47:50;8.10;79.90
48579;DHT22;34357;51.948;6.132;2023-02-15T17:50:24;8.10;80.20
48579;DHT22;34357;51.948;6.132;2023-02-15T17:52:52;8.10;79.90
48579;DHT22;34357;51.948;6.132;2023-02-15T17:55:20;8.10;79.90
48579;DHT22;34357;51.948;6.132;2023-02-15T17:58:13;8.10;80.10
48579;DHT22;34357;51.948;6.132;2023-02-15T18:00:45;8.20;79.60
48579;DHT22;34357;51.948;6.132;2023-02-15T18:03:50;8.20;79.30
48579;DHT22;34357;51.948;6.132;2023-02-15T18:06:37;8.20;79.30
48579;DHT22;34357;51.948;6.132;2023-02-15T18:09:22;8.20;79.00
48579;DHT22;34357;51.948;6.132;2023-02-15T18:14:45;8.20;78.60
48579;DHT22;34357;51.948;6.132;2023-02-15T18:17:15;8.20;78.40
48579;DHT22;34357;51.948;6.132;2023-02-15T18:19:42;8.20;78.20
48579;DHT22;34357;51.948;6.132;2023-02-15T18:22:16;8.20;77.90
48579;DHT22;34357;51.948;6.132;2023-02-15T18:24:42;8.20;78.30
48579;DHT22;34357;51.948;6.132;2023-02-15T18:27:13;8.20;78.10
48579;DHT22;34357;51.948;6.132;2023-02-15T18:29:39;8.20;77.60
48579;DHT22;34357;51.948;6.132;2023-02-15T18:32:13;8.20;78.10
48579;DHT22;34357;51.948;6.132;2023-02-15T18:34:41;8.20;77.80
48579;DHT22;34357;51.948;6.132;2023-02-15T18:37:14;8.10;77.80
48579;DHT22;34357;51.948;6.132;2023-02-15T18:39:42;8.00;78.00
48579;DHT22;34357;51.948;6.132;2023-02-15T18:44:48;7.90;78.10
48579;DHT22;34357;51.948;6.132;2023-02-15T18:47:13;7.90;78.20
48579;DHT22;34357;51.948;6.132;2023-02-15T18:49:39;7.80;78.30
48579;DHT22;34357;51.948;6.132;2023-02-15T18:52:05;7.80;78.50
48579;DHT22;34357;51.948;6.132;2023-02-15T18:54:31;7.70;78.70
48579;DHT22;34357;51.948;6.132;2023-02-15T18:56:57;7.70;78.70
48579;DHT22;34357;51.948;6.132;2023-02-15T18:59:26;7.70;78.60
48579;DHT22;34357;51.948;6.132;2023-02-15T19:01:53;7.70;78.60
48579;DHT22;34357;51.948;6.132;2023-02-15T19:04:19;7.80;78.40
48579;DHT22;34357;51.948;6.132;2023-02-15T19:06:48;7.80;78.20
48579;DHT22;34357;51.948;6.132;2023-02-15T19:09:22;7.80;78.10
48579;DHT22;34357;51.948;6.132;2023-02-15T19:11:51;7.80;78.00
48579;DHT22;34357;51.948;6.132;2023-02-15T19:14:26;7.70;78.10
48579;DHT22;34357;51.948;6.132;2023-02-15T19:16:52;7.60;78.40
48579;DHT22;34357;51.948;6.132;2023-02-15T19:19:18;7.60;78.50
48579;DHT22;34357;51.948;6.132;2023-02-15T19:21:44;7.50;78.60
48579;DHT22;34357;51.948;6.132;2023-02-15T19:24:20;7.50;78.70
48579;DHT22;34357;51.948;6.132;2023-02-15T19:26:47;7.50;78.80
48579;DHT22;34357;51.948;6.132;2023-02-15T19:29:15;7.50;78.60
48579;DHT22;34357;51.948;6.132;2023-02-15T19:31:42;7.50;78.70
48579;DHT22;34357;51.948;6.132;2023-02-15T19:34:13;7.50;79.00
48579;DHT22;34357;51.948;6.132;2023-02-15T19:36:41;7.50;78.50
48579;DHT22;34357;51.948;6.132;2023-02-15T19:41:49;7.30;79.30
48579;DHT22;34357;51.948;6.132;2023-02-15T19:44:15;7.30;79.20
48579;DHT22;34357;51.948;6.132;2023-02-15T19:46:42;7.30;79.20